Time;durP1;ratioP1;P1;durP2;ratioP2;P2;SDS_P1;SDS_P2;PMS_P1;PMS_P2;Temp;Humidity;BMP_temperature;BMP_pressure;BME280_temperature;BME280_humidity;BME280_pressure;Samples;Min_cycle;Max_cycle;Signal;HPM_P1;HPM_P2
2022/03/06 00:00:15;;;;;;;26.70;13.50;;;;;;;-0.66;64.71;100641.05;214628;1274;141115;-72
2022/03/06 00:05:41;;;;;;;23.50;11.30;;;;;;;-0.71;64.98;100636.45;215569;1274;141447;-72
2022/03/06 00:10:45;;;;;;;26.00;12.00;;;;;;;-0.71;65.10;100640.41;213724;1274;143726;-68
2022/03/06 00:15:49;;;;;;;19.80;10.60;;;;;;;-0.70;64.77;100637.01;214166;1274;141142;-70
2022/03/06 00:20:55;;;;;;;30.40;14.30;;;;;;;-0.75;65.02;100638.69;213378;1274;141736;-67
2022/03/06 00:26:00;;;;;;;26.00;11.40;;;;;;;-0.78;65.05;100639.34;213283;1274;142092;-69
2022/03/06 00:31:05;;;;;;;21.70;10.10;;;;;;;-0.79;65.14;100636.67;215982;1276;140879;-69
2022/03/06 00:36:09;;;;;;;23.00;10.40;;;;;;;-0.78;65.05;100629.20;216105;1274;140091;-69
2022/03/06 00:41:13;;;;;;;12.40;8.40;;;;;;;-0.74;64.74;100629.23;215644;1276;142684;-70
2022/03/06 00:46:17;;;;;;;17.00;10.30;;;;;;;-0.73;64.24;100631.73;215562;1274;142611;-69
2022/03/06 00:51:22;;;;;;;20.50;10.10;;;;;;;-0.73;63.59;100634.30;214322;1276;140515;-68
2022/03/06 00:56:26;;;;;;;14.30;9.70;;;;;;;-0.74;63.20;100629.90;214766;1274;141807;-67
2022/03/06 01:01:34;;;;;;;22.30;12.60;;;;;;;-0.78;63.12;100631.83;215044;1274;140201;-71
2022/03/06 01:06:40;;;;;;;20.00;12.70;;;;;;;-0.79;63.16;100625.29;214531;1276;143079;-69
2022/03/06 01:11:45;;;;;;;18.70;11.80;;;;;;;-0.79;63.61;100620.44;214448;1276;141829;-70
2022/03/06 01:16:50;;;;;;;20.30;11.80;;;;;;;-0.79;63.20;100616.45;213741;1274;140423;-69
2022/03/06 01:21:54;;;;;;;14.50;9.20;;;;;;;-0.80;62.86;100618.07;214261;1274;225617;-68
2022/03/06 01:26:59;;;;;;;18.70;8.90;;;;;;;-0.80;62.54;100614.09;213467;1276;141954;-69
2022/03/06 01:32:03;;;;;;;11.50;7.80;;;;;;;-0.86;62.07;100613.88;213159;1274;140111;-69
2022/03/06 01:37:08;;;;;;;13.80;8.10;;;;;;;-0.91;62.34;100608.25;214273;1274;140871;-69
2022/03/06 01:42:12;;;;;;;10.90;6.70;;;;;;;-0.94;62.09;100604.52;214136;1275;140860;-70
2022/03/06 01:47:42;;;;;;;12.30;8.20;;;;;;;-0.98;61.69;100605.08;214302;1274;141647;-66
2022/03/06 01:52:48;;;;;;;14.10;8.00;;;;;;;-1.01;61.33;100601.52;214718;1274;141401;-71
2022/03/06 01:57:56;;;;;;;9.20;5.50;;;;;;;-1.05;61.24;100602.15;214692;1276;139910;-70
2022/03/06 02:03:00;;;;;;;12.50;6.80;;;;;;;-1.04;61.23;100606.81;214238;1276;140466;-70
2022/03/06 02:08:05;;;;;;;10.10;7.10;;;;;;;-1.05;60.87;100606.55;214262;1276;140260;-69
2022/03/06 02:13:09;;;;;;;17.80;6.40;;;;;;;-1.04;60.84;100600.73;214326;1274;139632;-72
2022/03/06 02:18:13;;;;;;;18.60;8.10;;;;;;;-1.04;60.76;100598.11;214895;1274;141515;-73
2022/03/06 02:23:18;;;;;;;13.80;7.70;;;;;;;-1.02;60.73;100594.09;214340;1274;141569;-69
2022/03/06 02:28:23;;;;;;;12.40;7.90;;;;;;;-1.03;60.60;100594.14;214693;1274;572110;-68
2022/03/06 02:33:27;;;;;;;12.80;6.90;;;;;;;-1.02;60.52;100591.43;215314;1274;161657;-69
2022/03/06 02:38:31;;;;;;;17.10;7.70;;;;;;;-1.02;60.27;100584.80;215935;1274;140855;-65
2022/03/06 02:43:35;;;;;;;15.40;7.20;;;;;;;-1.00;59.95;100585.59;214369;1274;143055;-69
2022/03/06 02:48:39;;;;;;;13.20;6.80;;;;;;;-1.02;59.83;100588.84;214853;1274;142306;-68
2022/03/06 02:53:44;;;;;;;10.70;6.40;;;;;;;-1.03;59.82;100592.56;215488;1274;140222;-68
2022/03/06 02:58:49;;;;;;;16.50;5.90;;;;;;;-0.99;59.90;100589.98;214537;1274;141889;-68
2022/03/06 03:03:53;;;;;;;12.50;4.90;;;;;;;-0.96;60.37;100590.80;215755;1274;140950;-67
2022/03/06 03:08:58;;;;;;;10.50;5.60;;;;;;;-0.99;60.49;100593.09;214602;1274;139821;-69
2022/03/06 03:14:03;;;;;;;10.00;5.90;;;;;;;-1.01;61.04;100590.72;215721;1274;139815;-69
2022/03/06 03:19:08;;;;;;;11.90;6.40;;;;;;;-0.99;60.83;100590.72;215297;1274;139846;-72
2022/03/06 03:24:13;;;;;;;9.70;5.80;;;;;;;-0.97;60.63;100591.36;214509;1274;140873;-74
2022/03/06 03:29:18;;;;;;;10.70;5.50;;;;;;;-0.94;60.63;100587.97;213993;1274;143246;-73
2022/03/06 03:34:22;;;;;;;7.70;5.10;;;;;;;-0.94;60.37;100587.48;213863;1274;141850;-74
2022/03/06 03:39:27;;;;;;;9.30;5.20;;;;;;;-0.96;60.11;100587.27;214055;1274;142423;-70
2022/03/06 03:44:31;;;;;;;10.50;6.50;;;;;;;-0.98;60.23;100589.75;214281;1274;140485;-69
2022/03/06 03:49:35;;;;;;;10.60;5.10;;;;;;;-0.99;60.15;100592.62;213250;1274;139991;-68
2022/03/06 03:54:40;;;;;;;8.40;4.90;;;;;;;-1.01;60.96;100590.31;214872;1274;141342;-74
2022/03/06 03:59:44;;;;;;;8.30;5.60;;;;;;;-1.03;61.33;100591.88;214070;1274;141389;-72
2022/03/06 04:04:49;;;;;;;12.20;6.20;;;;;;;-1.07;61.64;100595.60;213944;1274;140503;-67
2022/03/06 04:09:54;;;;;;;11.60;7.60;;;;;;;-1.13;61.94;100589.15;214116;1274;142420;-70
2022/03/06 04:14:59;;;;;;;12.20;7.10;;;;;;;-1.13;62.34;100595.56;213740;1274;141187;-74
2022/03/06 04:20:03;;;;;;;9.40;6.90;;;;;;;-1.12;62.34;100602.31;214392;1274;141748;-73
2022/03/06 04:25:08;;;;;;;138.20;124.40;;;;;;;-1.13;62.25;100597.81;215626;1274;140898;-74
2022/03/06 04:30:13;;;;;;;14.10;12.70;;;;;;;-1.12;62.33;100599.01;215795;1274;143909;-77
2022/03/06 04:35:16;;;;;;;10.20;8.10;;;;;;;-1.10;62.88;100594.44;214637;1275;141692;-74
2022/03/06 04:40:19;;;;;;;11.80;6.90;;;;;;;-1.02;62.56;100592.02;216042;1274;141966;-75
2022/03/06 04:45:25;;;;;;;15.90;10.10;;;;;;;-0.97;62.89;100592.40;215980;1274;141878;-74
2022/03/06 04:50:30;;;;;;;10.50;7.10;;;;;;;-0.92;62.82;100594.95;215252;1274;140872;-74
2022/03/06 04:55:35;;;;;;;10.70;6.00;;;;;;;-0.88;62.72;100598.07;215235;1274;141483;-74
2022/03/06 05:00:39;;;;;;;10.80;6.90;;;;;;;-0.88;62.83;100600.45;213299;1274;140919;-74
2022/03/06 05:05:44;;;;;;;9.30;6.00;;;;;;;-0.92;62.97;100596.29;214585;1276;144327;-71
2022/03/06 05:10:49;;;;;;;10.00;6.00;;;;;;;-0.96;62.78;100597.94;214413;1276;142125;-74
2022/03/06 05:15:55;;;;;;;8.70;5.80;;;;;;;-0.99;62.19;100598.00;213372;1274;140537;-73
2022/03/06 05:21:00;;;;;;;8.70;5.90;;;;;;;-1.03;61.55;100592.20;214912;1274;140562;-73
2022/03/06 05:26:05;;;;;;;8.80;5.10;;;;;;;-1.04;61.37;100589.04;213963;1274;140721;-74
2022/03/06 05:31:09;;;;;;;12.50;6.10;;;;;;;-1.07;61.55;100593.30;215075;1274;139660;-69
2022/03/06 05:36:14;;;;;;;11.70;7.10;;;;;;;-1.07;61.39;100593.11;213163;1275;140812;-73
2022/03/06 05:41:19;;;;;;;11.20;5.50;;;;;;;-1.07;61.37;100596.97;214574;1274;140551;-73
2022/03/06 05:46:24;;;;;;;9.50;6.50;;;;;;;-1.08;61.28;100596.40;213646;1274;141946;-73
2022/03/06 05:51:29;;;;;;;9.10;5.50;;;;;;;-1.08;61.13;100596.86;214057;1274;140885;-68
2022/03/06 05:56:34;;;;;;;6.40;5.40;;;;;;;-1.09;60.83;100593.67;214295;1274;237859;-73
2022/03/06 06:01:38;;;;;;;6.10;4.60;;;;;;;-1.08;60.76;100592.48;213229;1274;141424;-72
2022/03/06 06:06:43;;;;;;;10.20;5.50;;;;;;;-1.06;60.53;100589.92;214617;1274;140815;-72
2022/03/06 06:11:46;;;;;;;7.90;5.50;;;;;;;-1.04;60.28;100589.56;214062;1274;140648;-73
2022/03/06 06:16:51;;;;;;;8.20;5.20;;;;;;;-1.00;60.18;100587.66;213690;1274;140381;-73
2022/03/06 06:21:55;;;;;;;7.20;5.10;;;;;;;-0.98;60.12;100585.56;214340;1274;141244;-74
2022/03/06 06:27:02;;;;;;;6.00;4.50;;;;;;;-0.93;59.89;100585.98;215232;1274;141343;-72
2022/03/06 06:32:08;;;;;;;7.50;5.00;;;;;;;-0.88;60.06;100591.25;212985;1274;140231;-68
2022/03/06 06:37:13;;;;;;;5.20;4.20;;;;;;;-0.83;59.76;100590.23;214870;1274;140505;-73
2022/03/06 06:42:17;;;;;;;5.40;4.90;;;;;;;-0.77;59.45;100589.20;215557;1273;140043;-73
2022/03/06 06:47:21;;;;;;;7.10;4.10;;;;;;;-0.70;59.07;100589.54;216039;1274;141969;-74
2022/03/06 06:52:25;;;;;;;8.30;5.80;;;;;;;-0.61;59.02;100594.33;215929;1274;139687;-73
2022/03/06 06:57:30;;;;;;;6.10;4.70;;;;;;;-0.51;58.97;100590.25;215679;1274;140880;-76
2022/03/06 07:02:35;;;;;;;8.90;5.80;;;;;;;-0.42;58.76;100591.85;214839;1274;143638;-70
2022/03/06 07:07:39;;;;;;;7.30;3.70;;;;;;;-0.31;58.62;100597.28;215129;1274;140227;-74
2022/03/06 07:12:51;;;;;;;8.50;5.40;;;;;;;-0.25;57.98;100599.14;215711;1274;141266;-71
2022/03/06 07:17:57;;;;;;;8.70;5.90;;;;;;;-0.22;57.97;100593.46;213158;1276;141394;-67
2022/03/06 07:23:02;;;;;;;7.10;4.70;;;;;;;-0.14;57.36;100591.44;214840;1274;141055;-74
2022/03/06 07:28:07;;;;;;;8.50;4.20;;;;;;;-0.06;57.46;100597.73;214549;1274;139861;-70
2022/03/06 07:33:12;;;;;;;12.00;6.00;;;;;;;-0.02;57.05;100596.95;213417;1274;139971;-74
2022/03/06 07:38:17;;;;;;;6.20;5.10;;;;;;;0.00;56.75;100597.60;213777;1274;140685;-73
2022/03/06 07:43:21;;;;;;;7.50;5.00;;;;;;;0.06;56.55;100596.91;213085;1273;141447;-73
2022/03/06 07:48:26;;;;;;;7.70;5.60;;;;;;;0.13;56.38;100593.81;214426;1274;139941;-69
2022/03/06 07:53:29;;;;;;;6.50;4.80;;;;;;;0.21;56.15;100591.11;213948;1274;140333;-73
2022/03/06 07:58:33;;;;;;;6.30;5.40;;;;;;;0.31;56.13;100592.85;213365;1274;139519;-73
2022/03/06 08:03:37;;;;;;;9.20;6.40;;;;;;;0.42;56.22;100592.37;214325;1274;139665;-73
2022/03/06 08:08:43;;;;;;;5.90;4.80;;;;;;;0.53;55.98;100597.25;214893;1274;141851;-69
2022/03/06 08:13:47;;;;;;;9.20;6.00;;;;;;;0.69;55.65;100593.61;213819;1274;141008;-74
2022/03/06 08:18:51;;;;;;;5.20;4.40;;;;;;;0.84;55.56;100590.18;214484;1274;139990;-73
2022/03/06 08:23:56;;;;;;;13.40;7.50;;;;;;;1.01;55.15;100592.17;215293;1274;139830;-74
2022/03/06 08:29:00;;;;;;;7.10;6.20;;;;;;;1.11;54.53;100589.09;214684;1274;139822;-74
2022/03/06 08:34:04;;;;;;;9.20;6.00;;;;;;;1.20;54.25;100589.75;214354;1274;140733;-74
2022/03/06 08:39:08;;;;;;;6.70;4.30;;;;;;;1.25;54.38;100588.98;215851;1274;140485;-74
2022/03/06 08:44:12;;;;;;;6.50;5.50;;;;;;;1.32;54.15;100585.85;214567;1274;139653;-69
2022/03/06 08:49:16;;;;;;;7.30;6.60;;;;;;;1.49;54.36;100582.74;216044;1274;140152;-74
2022/03/06 08:54:20;;;;;;;6.50;5.70;;;;;;;1.69;53.98;100580.74;215807;1274;139916;-74
2022/03/06 08:59:25;;;;;;;7.80;6.20;;;;;;;1.85;53.82;100578.86;215938;1274;140453;-77
2022/03/06 09:04:31;;;;;;;10.30;6.40;;;;;;;2.05;53.38;100572.29;215825;1274;139511;-76
2022/03/06 09:09:35;;;;;;;10.40;6.00;;;;;;;2.23;53.45;100568.95;215919;1274;139646;-77
2022/03/06 09:14:39;;;;;;;7.10;5.90;;;;;;;2.38;53.30;100572.79;215046;1275;140460;-74
2022/03/06 09:19:44;;;;;;;8.40;6.80;;;;;;;2.51;52.96;100575.30;214632;1275;141180;-69
2022/03/06 09:24:50;;;;;;;5.90;5.30;;;;;;;2.57;52.75;100575.70;213812;1274;140126;-72
2022/03/06 09:29:55;;;;;;;9.60;7.10;;;;;;;2.61;52.00;100578.96;214279;1274;139442;-68
2022/03/06 09:35:00;;;;;;;7.90;6.20;;;;;;;2.60;52.02;100577.67;213433;1274;141527;-73
2022/03/06 09:40:05;;;;;;;12.30;6.80;;;;;;;2.56;51.79;100572.48;214409;1276;140596;-74
2022/03/06 09:45:11;;;;;;;9.30;7.10;;;;;;;2.51;51.91;100571.57;214847;1274;141206;-74
2022/03/06 09:50:17;;;;;;;10.00;6.80;;;;;;;2.57;51.10;100569.38;213010;1276;141234;-72
2022/03/06 09:55:21;;;;;;;8.60;6.20;;;;;;;2.65;51.10;100567.33;214801;1274;140667;-74
2022/03/06 10:00:26;;;;;;;11.00;7.70;;;;;;;2.67;50.61;100567.39;214788;1274;141547;-74
2022/03/06 10:05:39;;;;;;;8.10;7.20;;;;;;;2.75;51.32;100570.10;213297;1276;140141;-73
2022/03/06 10:10:45;;;;;;;10.40;7.80;;;;;;;2.83;50.93;100567.85;214241;1274;140483;-72
2022/03/06 10:16:01;;;;;;;10.00;7.20;;;;;;;2.87;51.08;100567.06;213942;1274;141360;-74
2022/03/06 10:21:11;;;;;;;7.80;6.60;;;;;;;2.92;50.95;100569.64;213951;1274;142075;-74
2022/03/06 10:26:17;;;;;;;8.40;6.40;;;;;;;2.92;50.59;100568.39;213402;1274;140763;-74
2022/03/06 10:31:23;;;;;;;10.00;7.80;;;;;;;2.91;50.63;100568.02;214233;1274;141376;-73
2022/03/06 10:36:44;;;;;;;7.90;6.50;;;;;;;2.90;50.04;100562.30;213375;1276;140660;-73
2022/03/06 10:41:54;;;;;;;11.70;8.00;;;;;;;2.93;50.00;100555.19;214547;1276;140172;-74
2022/03/06 10:47:01;;;;;;;11.30;8.00;;;;;;;3.00;50.25;100549.60;215369;1274;139713;-74
2022/03/06 10:52:13;;;;;;;;;;;;;;;3.13;49.73;100538.04;214905;1276;140902;-75
2022/03/06 10:57:19;;;;;;;9.00;8.00;;;;;;;3.06;49.37;100533.71;216404;1274;126408;-74
2022/03/06 11:02:25;;;;;;;10.70;7.10;;;;;;;3.09;49.55;100530.97;215047;1274;139860;-75
2022/03/06 11:07:29;;;;;;;9.90;8.20;;;;;;;3.20;49.89;100527.95;215344;1274;140106;-75
2022/03/06 11:12:36;;;;;;;10.00;8.70;;;;;;;3.31;49.25;100526.27;215725;1276;140486;-73
2022/03/06 11:17:41;;;;;;;9.60;8.40;;;;;;;3.38;49.50;100521.95;215804;1274;140788;-76
2022/03/06 11:23:02;;;;;;;12.20;9.70;;;;;;;3.34;48.96;100519.90;215505;1274;140838;-75
2022/03/06 11:28:27;;;;;;;13.00;10.00;;;;;;;3.31;49.12;100515.45;215544;1276;142305;-75
2022/03/06 11:33:41;;;;;;;10.70;9.00;;;;;;;3.32;49.16;100511.41;213422;1274;141792;-73
2022/03/06 11:38:48;;;;;;;12.80;9.60;;;;;;;3.28;48.87;100506.90;214519;1274;140420;-75
2022/03/06 11:43:51;;;;;;;13.90;11.70;;;;;;;3.18;49.21;100497.66;214688;1274;139918;-74
2022/03/06 11:49:06;;;;;;;11.00;8.00;;;;;;;3.12;49.00;100502.51;213438;1274;141491;-74
2022/03/06 11:54:14;;;;;;;10.30;9.20;;;;;;;2.99;48.55;100504.13;214210;1275;140727;-74
2022/03/06 11:59:33;;;;;;;12.60;9.60;;;;;;;2.96;48.69;100495.97;214501;1274;141812;-75
2022/03/06 12:04:44;;;;;;;10.50;8.20;;;;;;;2.94;48.65;100490.30;213504;1274;140278;-75
2022/03/06 12:09:52;;;;;;;12.20;8.90;;;;;;;2.97;48.38;100483.02;214386;1274;141456;-75
2022/03/06 12:14:57;;;;;;;11.10;9.30;;;;;;;3.00;48.80;100476.91;214052;1274;141786;-74
2022/03/06 12:20:07;;;;;;;11.20;8.80;;;;;;;2.96;48.51;100475.10;213087;1274;141692;-73
2022/03/06 12:25:13;;;;;;;8.20;7.20;;;;;;;2.94;48.55;100471.11;213853;1274;140463;-73
2022/03/06 12:30:24;;;;;;;10.40;8.30;;;;;;;2.87;48.52;100464.73;213997;1275;141027;-74
2022/03/06 12:35:29;;;;;;;13.10;10.00;;;;;;;2.82;48.19;100456.31;213034;1274;140739;-74
2022/03/06 12:40:33;;;;;;;15.10;9.60;;;;;;;2.79;48.38;100450.85;214570;1274;140231;-74
2022/03/06 12:45:38;;;;;;;9.60;8.20;;;;;;;2.67;48.45;100443.58;213817;1275;140510;-70
2022/03/06 12:50:42;;;;;;;13.20;10.20;;;;;;;2.54;48.05;100443.42;213177;1274;140371;-74
2022/03/06 12:55:55;;;;;;;12.10;10.90;;;;;;;2.40;48.48;100446.15;213986;1274;144416;-74
2022/03/06 13:01:07;;;;;;;13.20;11.30;;;;;;;2.34;48.35;100443.79;214459;1274;140788;-72
2022/03/06 13:06:16;;;;;;;22.50;11.70;;;;;;;2.33;48.51;100438.79;213805;1274;141304;-74
2022/03/06 13:11:24;;;;;;;12.10;8.90;;;;;;;2.37;48.59;100438.33;215850;1274;141233;-74
2022/03/06 13:16:29;;;;;;;13.30;10.40;;;;;;;2.41;48.68;100440.98;215845;1274;140912;-74
2022/03/06 13:21:37;;;;;;;11.50;9.00;;;;;;;2.41;48.48;100444.95;215823;1274;141461;-74
2022/03/06 13:26:42;;;;;;;9.10;8.20;;;;;;;2.45;48.59;100446.27;215879;1275;141955;-77
2022/03/06 13:31:47;;;;;;;9.50;8.10;;;;;;;2.44;48.31;100441.02;216017;1274;140163;-77
2022/03/06 13:36:59;;;;;;;10.50;8.20;;;;;;;2.31;48.13;100438.45;215534;1274;139840;-76
2022/03/06 13:42:05;;;;;;;15.80;9.30;;;;;;;2.15;48.26;100432.13;214786;1274;139522;-73
2022/03/06 13:47:12;;;;;;;11.10;8.60;;;;;;;2.06;48.81;100433.86;215102;1274;140376;-69
2022/03/06 13:52:16;;;;;;;12.30;9.30;;;;;;;1.94;48.66;100433.55;215187;1274;140360;-70
2022/03/06 13:57:20;;;;;;;11.90;8.60;;;;;;;1.81;49.07;100428.74;215150;1274;141224;-72
2022/03/06 14:02:26;;;;;;;11.60;10.00;;;;;;;1.83;49.04;100431.04;214997;1274;141402;-73
2022/03/06 14:07:31;;;;;;;11.80;10.50;;;;;;;1.81;48.82;100438.27;213877;1274;139820;-74
2022/03/06 14:12:36;;;;;;;14.80;11.40;;;;;;;1.73;48.97;100439.75;214751;1274;142149;-74
2022/03/06 14:17:51;;;;;;;11.00;8.80;;;;;;;1.70;49.13;100440.23;214201;1274;141453;-73
2022/03/06 14:22:59;;;;;;;17.70;13.00;;;;;;;1.67;49.05;100434.44;213948;1274;140580;-71
2022/03/06 14:28:04;;;;;;;21.60;15.50;;;;;;;1.62;48.90;100433.20;214971;1274;142068;-66
2022/03/06 14:33:10;;;;;;;12.50;11.30;;;;;;;1.55;49.02;100438.67;214575;1274;286810;-73
2022/03/06 14:38:14;;;;;;;14.10;9.70;;;;;;;1.43;48.42;100436.08;214202;1274;139805;-72
2022/03/06 14:43:21;;;;;;;10.80;8.90;;;;;;;1.32;48.80;100437.92;214439;1274;139654;-73
2022/03/06 14:48:25;;;;;;;14.20;12.00;;;;;;;1.16;49.21;100437.48;213885;1275;140908;-74
2022/03/06 14:53:31;;;;;;;14.10;11.90;;;;;;;1.08;49.48;100434.24;214453;1274;140579;-71
2022/03/06 14:58:35;;;;;;;11.20;10.00;;;;;;;0.97;49.65;100436.22;215224;1274;141236;-71
2022/03/06 15:03:40;;;;;;;13.20;10.10;;;;;;;0.89;49.53;100438.16;215009;1274;139867;-73
2022/03/06 15:08:43;;;;;;;12.10;10.30;;;;;;;0.84;49.47;100436.68;213610;1274;139827;-72
2022/03/06 15:13:48;;;;;;;12.70;9.00;;;;;;;0.79;49.54;100439.14;213957;1274;231985;-71
2022/03/06 15:18:53;;;;;;;13.00;10.70;;;;;;;0.73;50.30;100447.95;215987;1274;140121;-73
2022/03/06 15:23:57;;;;;;;13.10;10.20;;;;;;;0.71;50.40;100442.23;214696;1274;140871;-72
2022/03/06 15:29:02;;;;;;;13.80;11.40;;;;;;;0.69;50.16;100437.21;215919;1274;141028;-73
2022/03/06 15:34:07;;;;;;;14.80;10.30;;;;;;;0.63;50.02;100430.42;216038;1274;140730;-78
2022/03/06 15:39:15;;;;;;;15.70;12.30;;;;;;;0.57;50.12;100432.60;216031;1274;141373;-72
2022/03/06 15:44:19;;;;;;;18.60;11.20;;;;;;;0.53;50.24;100430.20;215788;1274;140495;-72
2022/03/06 15:49:24;;;;;;;17.90;11.20;;;;;;;0.51;50.67;100429.77;215699;1274;143441;-70
2022/03/06 15:54:33;;;;;;;15.90;12.30;;;;;;;0.48;50.64;100430.52;214729;1274;140271;-73
2022/03/06 15:59:38;;;;;;;14.20;10.60;;;;;;;0.41;50.74;100431.05;213401;1274;139924;-73
2022/03/06 16:04:42;;;;;;;24.10;14.30;;;;;;;0.32;50.84;100428.66;215096;1273;140061;-68
2022/03/06 16:09:46;;;;;;;18.30;13.60;;;;;;;0.23;50.79;100429.73;214479;1274;140083;-74
2022/03/06 16:14:49;;;;;;;19.50;13.30;;;;;;;0.17;50.80;100430.70;214625;1274;140653;-74
2022/03/06 16:19:54;;;;;;;16.40;13.70;;;;;;;0.13;51.15;100432.10;213948;1274;140841;-73
2022/03/06 16:24:59;;;;;;;16.50;12.70;;;;;;;0.10;51.60;100432.20;213870;1274;140346;-70
2022/03/06 16:30:05;;;;;;;17.80;13.90;;;;;;;0.08;51.75;100438.71;213339;1274;141513;-72
2022/03/06 16:35:10;;;;;;;21.90;15.70;;;;;;;0.03;51.63;100440.23;214192;1274;142829;-69
2022/03/06 16:40:38;;;;;;;19.30;13.60;;;;;;;-0.04;51.79;100440.05;213024;1274;141643;-70
2022/03/06 16:45:43;;;;;;;26.30;16.00;;;;;;;-0.09;52.47;100443.05;214096;1274;141615;-72
2022/03/06 16:50:49;;;;;;;19.80;14.60;;;;;;;-0.12;52.56;100445.23;214643;1274;140328;-73
2022/03/06 16:55:53;;;;;;;23.10;16.40;;;;;;;-0.19;52.78;100443.06;214062;1274;141266;-74
2022/03/06 17:00:57;;;;;;;21.70;15.70;;;;;;;-0.24;52.97;100441.50;215712;1274;141298;-73
2022/03/06 17:06:05;;;;;;;24.80;15.90;;;;;;;-0.26;53.49;100441.02;215005;1274;140568;-74
2022/03/06 17:11:11;;;;;;;21.70;15.60;;;;;;;-0.27;53.94;100442.15;215217;1274;140458;-73
2022/03/06 17:16:15;;;;;;;18.80;14.40;;;;;;;-0.28;54.03;100443.09;213896;1274;161356;-74
2022/03/06 17:21:20;;;;;;;19.10;14.20;;;;;;;-0.28;53.98;100445.45;212891;1274;139831;-70
2022/03/06 17:26:25;;;;;;;19.90;15.00;;;;;;;-0.33;54.09;100444.83;214961;1274;142358;-72
2022/03/06 17:31:30;;;;;;;19.70;14.60;;;;;;;-0.37;54.45;100450.06;215504;1274;140158;-73
2022/03/06 17:36:35;;;;;;;26.20;14.20;;;;;;;-0.39;54.48;100446.07;216096;1274;141547;-75
2022/03/06 17:41:40;;;;;;;20.10;14.80;;;;;;;-0.42;54.64;100440.21;215484;1274;141422;-73
2022/03/06 17:46:48;;;;;;;18.40;13.00;;;;;;;-0.40;54.88;100438.46;215369;1274;140530;-73
2022/03/06 17:51:55;;;;;;;15.90;13.00;;;;;;;-0.37;54.71;100439.64;215899;1274;140257;-71
2022/03/06 17:56:59;;;;;;;24.20;17.00;;;;;;;-0.37;55.11;100437.15;215959;1274;141485;-69
2022/03/06 18:02:04;;;;;;;27.80;18.50;;;;;;;-0.38;55.19;100437.27;214314;1274;140060;-70
2022/03/06 18:07:10;;;;;;;27.90;16.90;;;;;;;-0.38;55.60;100441.08;214188;1274;141054;-70
2022/03/06 18:12:15;;;;;;;25.30;16.50;;;;;;;-0.40;55.49;100442.88;213355;1274;141040;-71
2022/03/06 18:17:24;;;;;;;23.90;15.40;;;;;;;-0.43;55.81;100445.23;213709;1274;140818;-72
2022/03/06 18:22:27;;;;;;;26.20;17.20;;;;;;;-0.47;55.88;100440.77;213073;1274;140897;-68
2022/03/06 18:27:31;;;;;;;19.90;14.50;;;;;;;-0.52;56.38;100440.67;214002;1274;140763;-71
2022/03/06 18:32:37;;;;;;;30.30;18.90;;;;;;;-0.54;56.45;100439.98;213776;1274;141498;-70
2022/03/06 18:37:44;;;;;;;27.10;16.80;;;;;;;-0.56;56.66;100434.57;214020;1274;140154;-70
2022/03/06 18:42:49;;;;;;;30.40;18.80;;;;;;;-0.56;56.66;100437.38;214424;1274;140591;-72
2022/03/06 18:47:54;;;;;;;24.00;16.80;;;;;;;-0.56;56.47;100440.59;213246;1274;205391;-69
2022/03/06 18:52:58;;;;;;;30.80;16.30;;;;;;;-0.63;56.70;100441.83;214358;1274;140582;-70
2022/03/06 18:58:05;;;;;;;25.10;18.50;;;;;;;-0.69;56.96;100443.42;214144;1274;140052;-70
2022/03/06 19:03:08;;;;;;;24.40;16.60;;;;;;;-0.71;57.31;100442.69;214600;1274;140832;-67
2022/03/06 19:08:15;;;;;;;25.80;17.80;;;;;;;-0.69;57.36;100438.98;213831;1274;141409;-69
2022/03/06 19:13:20;;;;;;;29.80;17.50;;;;;;;-0.66;57.25;100442.77;214715;1274;140112;-69
2022/03/06 19:18:27;;;;;;;28.90;18.30;;;;;;;-0.65;57.25;100444.25;213996;1274;140238;-68
2022/03/06 19:23:36;;;;;;;25.50;15.10;;;;;;;-0.66;57.51;100445.06;214474;1274;140793;-68
2022/03/06 19:28:41;;;;;;;24.60;17.50;;;;;;;-0.68;57.42;100440.86;213708;1274;141904;-66
2022/03/06 19:33:47;;;;;;;26.90;17.90;;;;;;;-0.69;57.19;100446.04;215128;1273;141045;-70
2022/03/06 19:38:52;;;;;;;21.30;16.00;;;;;;;-0.70;57.13;100441.55;214068;1274;142031;-73
2022/03/06 19:43:56;;;;;;;26.40;17.50;;;;;;;-0.73;57.32;100446.20;214355;1274;140377;-74
2022/03/06 19:49:07;;;;;;;26.10;17.00;;;;;;;-0.73;57.11;100447.30;214630;1274;140556;-72
2022/03/06 19:54:16;;;;;;;24.70;15.50;;;;;;;-0.72;57.12;100448.25;215938;1274;140064;-75
2022/03/06 19:59:25;;;;;;;24.10;16.80;;;;;;;-0.74;56.97;100442.77;215361;1274;141280;-68
2022/03/06 20:04:33;;;;;;;25.80;16.40;;;;;;;-0.73;56.95;100436.82;215522;1274;142839;-71
2022/03/06 20:09:39;;;;;;;24.90;16.20;;;;;;;-0.74;56.87;100439.99;215597;1274;140663;-70
2022/03/06 20:14:43;;;;;;;28.20;18.50;;;;;;;-0.75;56.98;100434.14;215005;1274;141904;-70
2022/03/06 20:19:48;;;;;;;24.60;17.30;;;;;;;-0.73;56.92;100436.41;214144;1274;139959;-73
2022/03/06 20:24:53;;;;;;;30.10;18.80;;;;;;;-0.72;56.96;100428.01;214876;1274;141330;-71
2022/03/06 20:30:00;;;;;;;27.00;18.10;;;;;;;-0.73;56.92;100423.33;214633;1274;140099;-70
2022/03/06 20:35:06;;;;;;;23.50;15.20;;;;;;;-0.74;56.89;100427.69;214706;1274;142003;-74
2022/03/06 20:40:12;;;;;;;23.30;16.60;;;;;;;-0.82;56.54;100432.73;214286;1274;139909;-75
2022/03/06 20:45:16;;;;;;;35.80;19.40;;;;;;;-0.87;56.78;100430.25;213414;1274;140112;-71
2022/03/06 20:50:24;;;;;;;30.50;17.50;;;;;;;-0.86;56.69;100437.53;213468;1274;140994;-71
2022/03/06 20:55:28;;;;;;;26.80;17.70;;;;;;;-0.88;56.95;100441.00;213698;1274;140843;-68
2022/03/06 21:00:36;;;;;;;26.70;15.60;;;;;;;-0.88;56.75;100441.34;212944;1274;140218;-72
2022/03/06 21:05:42;;;;;;;30.20;19.10;;;;;;;-0.88;57.13;100433.38;214384;1274;140238;-75
2022/03/06 21:10:46;;;;;;;24.50;16.00;;;;;;;-0.87;57.09;100437.95;214370;1274;140689;-73
2022/03/06 21:15:51;;;;;;;29.80;20.30;;;;;;;-0.87;57.30;100426.95;214413;1274;140321;-71
2022/03/06 21:20:56;;;;;;;26.60;16.10;;;;;;;-0.88;57.08;100429.45;214709;1274;140433;-76
2022/03/06 21:26:01;;;;;;;27.20;16.70;;;;;;;-0.89;56.97;100428.91;213084;1274;140130;-70
2022/03/06 21:31:05;;;;;;;25.40;17.00;;;;;;;-0.92;57.23;100431.05;214614;1274;139687;-72
2022/03/06 21:36:12;;;;;;;24.00;17.70;;;;;;;-0.93;57.24;100428.73;213644;1274;140886;-72
2022/03/06 21:41:17;;;;;;;26.20;16.50;;;;;;;-0.93;57.24;100432.62;213606;1274;141460;-69
2022/03/06 21:46:23;;;;;;;28.00;19.10;;;;;;;-0.96;57.33;100426.61;215892;1274;140046;-74
2022/03/06 21:51:27;;;;;;;33.00;20.60;;;;;;;-0.97;57.40;100426.19;215279;1274;141808;-73
2022/03/06 21:56:37;;;;;;;35.90;20.70;;;;;;;-0.97;57.54;100427.76;215543;1274;142204;-69
2022/03/06 22:01:46;;;;;;;31.30;20.60;;;;;;;-0.96;57.48;100427.14;215943;1274;141799;-71
2022/03/06 22:06:51;;;;;;;30.50;21.10;;;;;;;-0.94;57.69;100427.14;215964;1274;141532;-76
2022/03/06 22:11:55;;;;;;;32.30;18.40;;;;;;;-0.93;57.67;100417.46;215859;1274;142508;-73
2022/03/06 22:17:06;;;;;;;31.70;20.30;;;;;;;-0.94;57.71;100411.58;215910;1274;141893;-73
2022/03/06 22:22:10;;;;;;;28.70;18.90;;;;;;;-0.93;57.99;100413.02;213378;1274;140278;-70
2022/03/06 22:27:15;;;;;;;28.20;15.40;;;;;;;-0.95;57.93;100413.75;214895;1274;140850;-68
2022/03/06 22:32:20;;;;;;;31.10;20.50;;;;;;;-0.96;58.13;100416.16;215065;1274;141460;-67
2022/03/06 22:37:25;;;;;;;28.10;17.80;;;;;;;-0.96;58.44;100425.41;214512;1274;142173;-72
2022/03/06 22:42:29;;;;;;;41.70;25.30;;;;;;;-0.98;58.61;100422.27;214661;1274;141606;-73
2022/03/06 22:47:33;;;;;;;37.10;21.80;;;;;;;-1.00;58.53;100418.61;214620;1274;140051;-71
2022/03/06 22:52:38;;;;;;;33.70;18.60;;;;;;;-1.01;58.88;100419.36;213968;1274;141979;-71